ADDS METAR Data INFO
IDs: Format: Raw Decoded Include TAF

Data at: 2038 UTC 22 Feb 2018

KFVX 222015Z AUTO 19007G15KT 10SM BKN032 OVC041 24/18 A3032 RMK AO2 T02390175
KFVX 221955Z AUTO 20009G17KT 10SM SCT029 BKN035 OVC041 24/18 A3033 RMK AO2 T02430178
KFVX 221935Z AUTO 18009G16KT 10SM BKN029 OVC035 24/18 A3033 RMK AO2 T02380179
KFVX 221915Z AUTO 20010G18KT 10SM OVC029 24/18 A3033 RMK AO2 T02360182
KFVX 221855Z AUTO 20011G16KT 10SM OVC027 24/19 A3034 RMK AO2 T02350185
KFVX 221835Z AUTO 19010G15KT 10SM OVC025 23/19 A3036 RMK AO2 T02290192
KFVX 221815Z AUTO 19008KT 10SM OVC023 23/21 A3037 RMK AO2 T02270206
KFVX 221755Z AUTO 21008KT 10SM OVC023 23/21 A3038 RMK AO2 T02260209
KFVX 221735Z AUTO 22008KT 10SM OVC021 23/21 A3039 RMK AO2 T02250210
KFVX 221715Z AUTO 20009G14KT 10SM OVC021 22/22 A3039 RMK AO2 T02210215
KFVX 221655Z AUTO 22007KT 10SM OVC019 22/22 A3041 RMK AO2 T02170217
KFVX 221635Z AUTO 21008KT 10SM OVC017 22/22 A3042 RMK AO2 T02150215
KFVX 221615Z AUTO 22008KT 10SM OVC017 21/21 A3042 RMK AO2 T02120212
KFVX 221555Z AUTO 21006KT 10SM OVC015 21/21 A3042 RMK AO2 T02070207
KFVX 221535Z AUTO 21005KT 10SM OVC015 A3043 RMK AO2
KFVX 221515Z AUTO 21007KT 10SM OVC013 A3042 RMK AO2
KFVX 221455Z AUTO 20003KT 10SM OVC011 A3043 RMK AO2
KFVX 221435Z AUTO 20005KT 10SM OVC007 A3043 RMK AO2
KFVX 221415Z AUTO 20006KT 10SM OVC007 A3043 RMK AO2
KFVX 221355Z AUTO 21005KT 7SM OVC007 A3043 RMK AO2
KFVX 221335Z AUTO 21004KT 7SM OVC007 A3042 RMK AO2
KFVX 221315Z AUTO 19003KT 7SM OVC007 A3042 RMK AO2
KFVX 221255Z AUTO 00000KT 7SM OVC007 A3041 RMK AO2
KFVX 221235Z AUTO 00000KT 7SM OVC007 A3040 RMK AO2
KFVX 221215Z AUTO 21003KT 7SM OVC009 A3039 RMK AO2
KFVX 221155Z AUTO 20003KT 7SM OVC009 A3039 RMK AO2 LTG DSNT W
KFVX 221135Z AUTO 00000KT 10SM OVC009 A3039 RMK AO2
KFVX 221115Z AUTO 22003KT 10SM OVC011 A3039 RMK AO2
KFVX 221055Z AUTO 21004KT 7SM OVC011 A3039 RMK AO2
KFVX 221035Z AUTO 21003KT 3SM BR SCT015 SCT030 A3038 RMK AO2
KFVX 221015Z AUTO 20003KT 5SM HZ CLR A3038 RMK AO2
KFVX 220955Z AUTO 18003KT 3/4SM BR VV005 A3037 RMK AO2
KFVX 220935Z AUTO 00000KT 5SM HZ CLR A3037 RMK AO2
KFVX 220915Z AUTO 00000KT 7SM CLR A3037 RMK AO2
KFVX 220855Z AUTO 00000KT 10SM CLR A3037 RMK AO2
KFVX 220835Z AUTO 19003KT 10SM CLR A3037 RMK AO2
KFVX 220815Z AUTO 21003KT 10SM CLR A3037 RMK AO2
KFVX 220755Z AUTO 20003KT 10SM CLR A3038 RMK AO2
KFVX 220735Z AUTO 22003KT 10SM SCT038 A3038 RMK AO2
KFVX 220715Z AUTO 23004KT 10SM SCT038 A3038 RMK AO2
KFVX 220655Z AUTO 20005KT 10SM CLR A3038 RMK AO2
KFVX 220635Z AUTO 21004KT 10SM CLR A3038 RMK AO2
KFVX 220615Z AUTO 20003KT 10SM CLR A3038 RMK AO2
KFVX 220555Z AUTO 00000KT 10SM CLR A3038 RMK AO2
KFVX 220535Z AUTO 00000KT 10SM CLR A3038 RMK AO2
KFVX 220515Z AUTO 00000KT 10SM CLR A3038 RMK AO2
KFVX 220455Z AUTO 23003KT 10SM CLR A3038 RMK AO2
KFVX 220435Z AUTO 22003KT 10SM CLR A3037 RMK AO2
KFVX 220415Z AUTO 21005KT 10SM CLR A3037 RMK AO2
KFVX 220355Z AUTO 21005KT 10SM CLR A3037 RMK AO2
KFVX 220035Z AUTO 19005KT 10SM SCT048 22/20 A3035 RMK AO2 T02150199
KFVX 220015Z AUTO 19005KT 10SM SCT048 22/19 A3035 RMK AO2 T02170190
KFVX 212355Z AUTO 19005KT 10SM CLR 22/19 A3034 RMK AO2 T02190186 10271 20219
KFVX 212335Z AUTO 19006KT 10SM CLR 23/18 A3034 RMK AO2 T02260177
KFVX 212315Z AUTO 19007KT 10SM CLR 23/17 A3033 RMK AO2 T02290171
KFVX 212255Z AUTO 20009KT 10SM CLR 24/17 A3032 RMK AO2 T02430166
KFVX 212235Z AUTO 20007KT 10SM SCT046 25/17 A3032 RMK AO2 T02490166
KFVX 212215Z AUTO 21010KT 10SM SCT048 26/17 A3032 RMK AO2 T02590165
KFVX 212155Z AUTO 21010G16KT 10SM SCT046 26/16 A3031 RMK AO2 T02630162
KFVX 212135Z AUTO 21010G17KT 10SM SCT046 27/16 A3031 RMK AO2 T02650164
KFVX 212115Z AUTO 20011G21KT 10SM SCT048 27/16 A3031 RMK AO2 T02700162
KFVX 212055Z AUTO 21012G16KT 10SM OVC048 27/17 A3032 RMK AO2 T02690166
KFVX 212035Z AUTO 21008G14KT 10SM BKN044 OVC050 26/17 A3032 RMK AO2 T02600165
KFVX 212015Z AUTO 21008KT 10SM SCT044 OVC050 27/17 A3032 RMK AO2 T02680167
KFVX 211955Z AUTO 21011G16KT 10SM SCT042 BKN047 27/17 A3034 RMK AO2 T02660165
KFVX 211935Z AUTO 22012G18KT 10SM OVC044 26/16 A3034 RMK AO2 T02610164
KFVX 211915Z AUTO 21011G18KT 10SM BKN044 26/17 A3034 RMK AO2 T02620166
KFVX 211855Z AUTO 22013G17KT 10SM BKN040 BKN047 27/16 A3034 RMK AO2 T02650163
KFVX 211835Z AUTO 20012G17KT 10SM BKN040 27/17 A3035 RMK AO2 T02680167
KFVX 211815Z AUTO 21013G19KT 10SM SCT038 SCT044 27/17 A3036 RMK AO2 T02660168
KFVX 211755Z AUTO 18016G19KT 10SM SCT036 BKN044 26/17 A3036 RMK AO2 T02640172
KFVX 211735Z AUTO 20014G20KT 10SM SCT035 OVC044 25/17 A3037 RMK AO2 T02500171
KFVX 211715Z AUTO 22011G16KT 10SM BKN036 BKN042 25/17 A3039 RMK AO2 T02500172
KFVX 211655Z AUTO 22013G17KT 10SM SCT031 SCT038 25/18 A3039 RMK AO2 T02480176
KFVX 211635Z AUTO 22011G21KT 10SM SCT029 BKN038 25/18 A3041 RMK AO2 T02470183
KFVX 211615Z AUTO 22009KT 10SM BKN027 OVC033 24/20 A3041 RMK AO2 T02370201
KFVX 211555Z AUTO 22008G14KT 10SM BKN021 23/21 A3042 RMK AO2 T02330210
KFVX 211535Z AUTO 23007G16KT 10SM OVC019 23/22 A3042 RMK AO2 T02270219
KFVX 211515Z AUTO 21008G16KT 10SM OVC017 22/22 A3042 RMK AO2 T02210221
KFVX 211455Z AUTO 21009G15KT 10SM BKN015 BKN020 OVC030 21/21 A3042 RMK AO2 T02130213
KFVX 211435Z AUTO 22009KT 10SM SCT013 OVC028 A3042 RMK AO2
KFVX 211415Z AUTO 21008KT 10SM SCT011 OVC026 A3041 RMK AO2
KFVX 211355Z AUTO 20007KT 10SM SCT011 OVC024 A3041 RMK AO2
KFVX 211335Z AUTO 20009KT 10SM SCT009 SCT014 OVC022 A3041 RMK AO2
KFVX 211315Z AUTO 20008KT 10SM OVC007 A3041 RMK AO2
KFVX 211255Z AUTO 20006KT 10SM OVC007 A3041 RMK AO2